N636CX KBLH-KEED

Flight info

Callsign N636CX
Flight time N/A
Altitude 7000
Route BLH V135 EED
Aircraft BE58/L-VD/C

Departure

Time 2026-04-27 01:11
Airport Blythe Airport (KBLH)

Arrival

Time N/A
Airport Needles Airport (KEED)
Time Latitude Longitude Altitude Speed Heading
2026-04-27 00:58 33.61465 -114.71319 396 ft 0 kts 360°
2026-04-27 01:06 33.61500 -114.71287 396 ft 11 kts 56°
2026-04-27 01:06 33.61514 -114.71175 396 ft 16 kts 92°
2026-04-27 01:06 33.61512 -114.71023 396 ft 20 kts 91°
2026-04-27 01:07 33.61512 -114.70843 393 ft 20 kts 91°
2026-04-27 01:07 33.61518 -114.70712 393 ft 14 kts 67°
2026-04-27 01:07 33.61572 -114.70623 394 ft 6 kts 20°
2026-04-27 01:07 33.61580 -114.70622 394 ft 0 kts
2026-04-27 01:09 33.61583 -114.70621 394 ft 2 kts
2026-04-27 01:09 33.61640 -114.70651 395 ft 10 kts 320°
2026-04-27 01:10 33.61655 -114.70737 395 ft 11 kts 268°
2026-04-27 01:10 33.61652 -114.71002 396 ft 70 kts 270°
2026-04-27 01:10 33.61666 -114.71773 572 ft 98 kts 260°
2026-04-27 01:10 33.61622 -114.72712 712 ft 127 kts 259°
2026-04-27 01:11 33.61591 -114.73832 920 ft 141 kts 262°
2026-04-27 01:11 33.61476 -114.75053 1076 ft 151 kts 256°
2026-04-27 01:11 33.61328 -114.76307 1300 ft 155 kts 263°
2026-04-27 01:11 33.61493 -114.77587 1567 ft 161 kts 290°
2026-04-27 01:12 33.62308 -114.78494 2017 ft 163 kts 327°
2026-04-27 01:12 33.63380 -114.78765 2476 ft 163 kts 356°
2026-04-27 01:12 33.64183 -114.78507 2971 ft 153 kts 27°
2026-04-27 01:12 33.65094 -114.77666 3438 ft 154 kts 36°
2026-04-27 01:13 33.65922 -114.76837 3782 ft 157 kts 36°
2026-04-27 01:13 33.66511 -114.76247 4034 ft 158 kts 36°
2026-04-27 01:13 33.66987 -114.75768 4240 ft 158 kts 37°